sensor_id;sensor_type;location;lat;lon;timestamp;P1;durP1;ratioP1;P2;durP2;ratioP2
62977;SDS011;49073;42.352;23.808;2022-08-03T00:01:33;4.07;;;1.88;;
62977;SDS011;49073;42.352;23.808;2022-08-03T00:04:34;2.58;;;1.67;;
62977;SDS011;49073;42.352;23.808;2022-08-03T00:07:34;2.13;;;1.88;;
62977;SDS011;49073;42.352;23.808;2022-08-03T00:10:36;2.13;;;1.80;;
62977;SDS011;49073;42.352;23.808;2022-08-03T00:13:37;1.88;;;1.70;;
62977;SDS011;49073;42.352;23.808;2022-08-03T00:16:37;1.70;;;1.60;;
62977;SDS011;49073;42.352;23.808;2022-08-03T00:19:38;2.33;;;1.60;;
62977;SDS011;49073;42.352;23.808;2022-08-03T00:22:38;2.65;;;1.88;;
62977;SDS011;49073;42.352;23.808;2022-08-03T00:25:39;3.50;;;1.90;;
62977;SDS011;49073;42.352;23.808;2022-08-03T00:28:39;2.42;;;1.60;;
62977;SDS011;49073;42.352;23.808;2022-08-03T00:31:39;1.70;;;1.58;;
62977;SDS011;49073;42.352;23.808;2022-08-03T00:34:40;3.03;;;1.92;;
62977;SDS011;49073;42.352;23.808;2022-08-03T00:37:40;2.28;;;1.67;;
62977;SDS011;49073;42.352;23.808;2022-08-03T00:40:41;3.20;;;1.60;;
62977;SDS011;49073;42.352;23.808;2022-08-03T00:43:41;5.18;;;2.00;;
62977;SDS011;49073;42.352;23.808;2022-08-03T00:46:42;2.33;;;1.80;;
62977;SDS011;49073;42.352;23.808;2022-08-03T00:49:42;2.65;;;1.77;;
62977;SDS011;49073;42.352;23.808;2022-08-03T00:52:43;2.88;;;1.52;;
62977;SDS011;49073;42.352;23.808;2022-08-03T00:55:44;2.80;;;2.00;;
62977;SDS011;49073;42.352;23.808;2022-08-03T00:58:45;2.33;;;1.83;;
62977;SDS011;49073;42.352;23.808;2022-08-03T01:01:46;3.53;;;2.35;;
62977;SDS011;49073;42.352;23.808;2022-08-03T01:04:46;2.15;;;1.80;;
62977;SDS011;49073;42.352;23.808;2022-08-03T01:08:01;2.47;;;1.75;;
62977;SDS011;49073;42.352;23.808;2022-08-03T01:17:48;2.15;;;1.40;;
62977;SDS011;49073;42.352;23.808;2022-08-03T01:20:55;2.20;;;1.80;;
62977;SDS011;49073;42.352;23.808;2022-08-03T01:24:03;2.28;;;1.90;;
62977;SDS011;49073;42.352;23.808;2022-08-03T01:27:10;1.90;;;1.70;;
62977;SDS011;49073;42.352;23.808;2022-08-03T01:30:16;1.90;;;1.58;;
62977;SDS011;49073;42.352;23.808;2022-08-03T01:33:19;2.05;;;1.70;;
62977;SDS011;49073;42.352;23.808;2022-08-03T01:36:25;2.63;;;1.95;;
62977;SDS011;49073;42.352;23.808;2022-08-03T01:39:32;2.35;;;1.88;;
62977;SDS011;49073;42.352;23.808;2022-08-03T01:42:37;3.83;;;1.77;;
62977;SDS011;49073;42.352;23.808;2022-08-03T01:45:40;2.97;;;1.98;;
62977;SDS011;49073;42.352;23.808;2022-08-03T01:48:43;2.80;;;1.90;;
62977;SDS011;49073;42.352;23.808;2022-08-03T01:51:46;1.98;;;1.70;;
62977;SDS011;49073;42.352;23.808;2022-08-03T01:54:49;2.70;;;1.80;;
62977;SDS011;49073;42.352;23.808;2022-08-03T01:57:51;3.97;;;2.10;;
62977;SDS011;49073;42.352;23.808;2022-08-03T02:00:53;4.25;;;2.13;;
62977;SDS011;49073;42.352;23.808;2022-08-03T02:03:58;2.75;;;1.75;;
62977;SDS011;49073;42.352;23.808;2022-08-03T02:06:59;2.45;;;2.10;;
62977;SDS011;49073;42.352;23.808;2022-08-03T02:10:02;2.75;;;1.90;;
62977;SDS011;49073;42.352;23.808;2022-08-03T02:13:05;2.33;;;1.80;;
62977;SDS011;49073;42.352;23.808;2022-08-03T02:16:08;2.03;;;1.70;;
62977;SDS011;49073;42.352;23.808;2022-08-03T02:19:11;3.03;;;2.10;;
62977;SDS011;49073;42.352;23.808;2022-08-03T02:22:12;5.32;;;1.90;;
62977;SDS011;49073;42.352;23.808;2022-08-03T02:25:14;2.42;;;2.13;;
62977;SDS011;49073;42.352;23.808;2022-08-03T02:28:16;6.90;;;2.08;;
62977;SDS011;49073;42.352;23.808;2022-08-03T02:31:21;2.38;;;1.98;;
62977;SDS011;49073;42.352;23.808;2022-08-03T02:34:23;3.15;;;2.05;;
62977;SDS011;49073;42.352;23.808;2022-08-03T02:37:28;2.70;;;1.77;;
62977;SDS011;49073;42.352;23.808;2022-08-03T02:40:33;2.10;;;1.70;;
62977;SDS011;49073;42.352;23.808;2022-08-03T02:43:35;2.30;;;2.00;;
62977;SDS011;49073;42.352;23.808;2022-08-03T02:46:44;2.72;;;2.00;;
62977;SDS011;49073;42.352;23.808;2022-08-03T02:49:48;2.35;;;1.65;;
62977;SDS011;49073;42.352;23.808;2022-08-03T02:52:51;2.20;;;2.00;;
62977;SDS011;49073;42.352;23.808;2022-08-03T02:55:54;3.17;;;2.25;;
62977;SDS011;49073;42.352;23.808;2022-08-03T02:58:56;6.68;;;2.70;;
62977;SDS011;49073;42.352;23.808;2022-08-03T03:01:59;2.63;;;2.08;;
62977;SDS011;49073;42.352;23.808;2022-08-03T03:05:00;2.03;;;1.77;;
62977;SDS011;49073;42.352;23.808;2022-08-03T03:08:02;3.42;;;1.90;;
62977;SDS011;49073;42.352;23.808;2022-08-03T03:11:03;4.25;;;2.15;;
62977;SDS011;49073;42.352;23.808;2022-08-03T03:14:04;3.15;;;2.22;;
62977;SDS011;49073;42.352;23.808;2022-08-03T03:17:06;3.08;;;2.50;;
62977;SDS011;49073;42.352;23.808;2022-08-03T03:20:08;4.85;;;2.15;;
62977;SDS011;49073;42.352;23.808;2022-08-03T03:23:10;2.83;;;1.90;;
62977;SDS011;49073;42.352;23.808;2022-08-03T03:26:12;4.80;;;2.03;;
62977;SDS011;49073;42.352;23.808;2022-08-03T03:29:14;2.20;;;1.90;;
62977;SDS011;49073;42.352;23.808;2022-08-03T03:32:15;2.33;;;1.92;;
62977;SDS011;49073;42.352;23.808;2022-08-03T03:35:16;3.35;;;2.00;;
62977;SDS011;49073;42.352;23.808;2022-08-03T03:38:17;2.95;;;2.42;;
62977;SDS011;49073;42.352;23.808;2022-08-03T03:41:18;2.38;;;1.90;;
62977;SDS011;49073;42.352;23.808;2022-08-03T03:44:19;2.58;;;2.17;;
62977;SDS011;49073;42.352;23.808;2022-08-03T03:47:20;2.50;;;2.20;;
62977;SDS011;49073;42.352;23.808;2022-08-03T03:50:21;2.10;;;1.75;;
62977;SDS011;49073;42.352;23.808;2022-08-03T03:53:23;2.25;;;1.80;;
62977;SDS011;49073;42.352;23.808;2022-08-03T03:56:24;2.95;;;2.40;;
62977;SDS011;49073;42.352;23.808;2022-08-03T03:59:25;2.35;;;2.15;;
62977;SDS011;49073;42.352;23.808;2022-08-03T04:02:25;2.17;;;1.80;;
62977;SDS011;49073;42.352;23.808;2022-08-03T04:05:26;3.88;;;2.33;;
62977;SDS011;49073;42.352;23.808;2022-08-03T04:08:45;4.88;;;2.00;;
62977;SDS011;49073;42.352;23.808;2022-08-03T04:12:04;4.22;;;2.05;;
62977;SDS011;49073;42.352;23.808;2022-08-03T04:15:05;5.78;;;2.22;;
62977;SDS011;49073;42.352;23.808;2022-08-03T04:18:08;3.92;;;2.50;;
62977;SDS011;49073;42.352;23.808;2022-08-03T04:21:12;2.95;;;2.08;;
62977;SDS011;49073;42.352;23.808;2022-08-03T04:24:17;2.50;;;2.00;;
62977;SDS011;49073;42.352;23.808;2022-08-03T04:27:20;4.63;;;2.08;;
62977;SDS011;49073;42.352;23.808;2022-08-03T04:30:27;2.08;;;1.85;;
62977;SDS011;49073;42.352;23.808;2022-08-03T04:33:31;2.83;;;1.85;;
62977;SDS011;49073;42.352;23.808;2022-08-03T04:36:35;2.35;;;2.00;;
62977;SDS011;49073;42.352;23.808;2022-08-03T04:39:39;3.88;;;2.05;;
62977;SDS011;49073;42.352;23.808;2022-08-03T04:42:42;2.63;;;2.05;;
62977;SDS011;49073;42.352;23.808;2022-08-03T04:45:44;2.53;;;2.30;;
62977;SDS011;49073;42.352;23.808;2022-08-03T04:48:46;2.85;;;2.17;;
62977;SDS011;49073;42.352;23.808;2022-08-03T04:51:48;2.28;;;1.75;;
62977;SDS011;49073;42.352;23.808;2022-08-03T04:54:49;2.38;;;1.90;;
62977;SDS011;49073;42.352;23.808;2022-08-03T04:57:50;4.88;;;1.98;;
62977;SDS011;49073;42.352;23.808;2022-08-03T05:00:50;3.22;;;2.70;;
62977;SDS011;49073;42.352;23.808;2022-08-03T05:03:51;4.78;;;3.95;;
62977;SDS011;49073;42.352;23.808;2022-08-03T05:06:51;3.85;;;2.40;;
62977;SDS011;49073;42.352;23.808;2022-08-03T05:09:52;2.55;;;2.20;;
62977;SDS011;49073;42.352;23.808;2022-08-03T05:12:52;2.45;;;1.92;;
62977;SDS011;49073;42.352;23.808;2022-08-03T05:15:53;4.03;;;2.92;;
62977;SDS011;49073;42.352;23.808;2022-08-03T05:18:53;3.13;;;2.30;;
62977;SDS011;49073;42.352;23.808;2022-08-03T05:21:54;2.15;;;1.95;;
62977;SDS011;49073;42.352;23.808;2022-08-03T05:24:54;3.85;;;2.10;;
62977;SDS011;49073;42.352;23.808;2022-08-03T05:27:55;2.80;;;2.10;;
62977;SDS011;49073;42.352;23.808;2022-08-03T05:30:56;2.72;;;1.95;;
62977;SDS011;49073;42.352;23.808;2022-08-03T05:33:56;6.65;;;2.30;;
62977;SDS011;49073;42.352;23.808;2022-08-03T05:36:57;4.05;;;2.20;;
62977;SDS011;49073;42.352;23.808;2022-08-03T05:39:57;2.55;;;2.22;;
62977;SDS011;49073;42.352;23.808;2022-08-03T05:42:58;2.55;;;2.00;;
62977;SDS011;49073;42.352;23.808;2022-08-03T05:45:58;2.88;;;1.85;;
62977;SDS011;49073;42.352;23.808;2022-08-03T05:49:00;4.82;;;2.22;;
62977;SDS011;49073;42.352;23.808;2022-08-03T05:52:00;2.20;;;1.80;;
62977;SDS011;49073;42.352;23.808;2022-08-03T05:55:01;2.83;;;2.20;;
62977;SDS011;49073;42.352;23.808;2022-08-03T05:58:01;2.72;;;2.10;;
62977;SDS011;49073;42.352;23.808;2022-08-03T06:01:02;3.67;;;2.40;;
62977;SDS011;49073;42.352;23.808;2022-08-03T06:04:03;2.53;;;1.92;;
62977;SDS011;49073;42.352;23.808;2022-08-03T06:07:04;3.28;;;2.25;;
62977;SDS011;49073;42.352;23.808;2022-08-03T06:10:04;5.53;;;2.42;;
62977;SDS011;49073;42.352;23.808;2022-08-03T06:13:05;3.40;;;2.30;;
62977;SDS011;49073;42.352;23.808;2022-08-03T06:16:06;3.58;;;2.20;;
62977;SDS011;49073;42.352;23.808;2022-08-03T06:19:06;2.75;;;2.47;;
62977;SDS011;49073;42.352;23.808;2022-08-03T06:22:07;3.10;;;2.05;;
62977;SDS011;49073;42.352;23.808;2022-08-03T06:25:08;2.45;;;1.98;;
62977;SDS011;49073;42.352;23.808;2022-08-03T06:28:08;2.13;;;1.90;;
62977;SDS011;49073;42.352;23.808;2022-08-03T06:31:09;3.45;;;1.75;;
62977;SDS011;49073;42.352;23.808;2022-08-03T06:34:09;3.30;;;2.20;;
62977;SDS011;49073;42.352;23.808;2022-08-03T06:37:10;3.10;;;2.00;;
62977;SDS011;49073;42.352;23.808;2022-08-03T06:40:12;2.97;;;2.10;;
62977;SDS011;49073;42.352;23.808;2022-08-03T06:43:13;2.58;;;1.98;;
62977;SDS011;49073;42.352;23.808;2022-08-03T06:46:14;2.72;;;2.30;;
62977;SDS011;49073;42.352;23.808;2022-08-03T06:49:15;3.50;;;2.13;;
62977;SDS011;49073;42.352;23.808;2022-08-03T06:52:15;3.55;;;2.22;;
62977;SDS011;49073;42.352;23.808;2022-08-03T06:55:16;2.45;;;2.25;;
62977;SDS011;49073;42.352;23.808;2022-08-03T06:58:16;2.55;;;2.22;;
62977;SDS011;49073;42.352;23.808;2022-08-03T07:01:17;3.13;;;1.90;;
62977;SDS011;49073;42.352;23.808;2022-08-03T07:04:17;3.08;;;2.15;;
62977;SDS011;49073;42.352;23.808;2022-08-03T07:07:18;4.70;;;2.50;;
62977;SDS011;49073;42.352;23.808;2022-08-03T07:10:19;3.22;;;2.20;;
62977;SDS011;49073;42.352;23.808;2022-08-03T07:13:20;3.28;;;2.53;;
62977;SDS011;49073;42.352;23.808;2022-08-03T07:16:20;3.15;;;2.33;;
62977;SDS011;49073;42.352;23.808;2022-08-03T07:19:21;2.83;;;2.28;;
62977;SDS011;49073;42.352;23.808;2022-08-03T07:22:21;2.60;;;2.00;;
62977;SDS011;49073;42.352;23.808;2022-08-03T07:25:22;2.40;;;2.00;;
62977;SDS011;49073;42.352;23.808;2022-08-03T07:28:23;2.83;;;2.42;;
62977;SDS011;49073;42.352;23.808;2022-08-03T07:31:23;4.20;;;2.35;;
62977;SDS011;49073;42.352;23.808;2022-08-03T07:34:24;3.20;;;2.20;;
62977;SDS011;49073;42.352;23.808;2022-08-03T07:37:24;3.70;;;2.60;;
62977;SDS011;49073;42.352;23.808;2022-08-03T07:40:24;2.67;;;2.08;;
62977;SDS011;49073;42.352;23.808;2022-08-03T07:43:25;2.55;;;2.00;;
62977;SDS011;49073;42.352;23.808;2022-08-03T07:46:25;2.63;;;2.28;;
62977;SDS011;49073;42.352;23.808;2022-08-03T07:49:26;2.40;;;1.98;;
62977;SDS011;49073;42.352;23.808;2022-08-03T07:52:26;2.40;;;1.80;;
62977;SDS011;49073;42.352;23.808;2022-08-03T07:55:45;2.33;;;1.80;;
62977;SDS011;49073;42.352;23.808;2022-08-03T07:58:46;2.75;;;2.15;;
62977;SDS011;49073;42.352;23.808;2022-08-03T08:01:46;3.10;;;1.77;;
62977;SDS011;49073;42.352;23.808;2022-08-03T08:04:46;2.33;;;2.13;;
62977;SDS011;49073;42.352;23.808;2022-08-03T08:07:47;3.28;;;2.03;;
62977;SDS011;49073;42.352;23.808;2022-08-03T08:10:49;2.60;;;1.90;;
62977;SDS011;49073;42.352;23.808;2022-08-03T08:13:49;3.05;;;2.10;;
62977;SDS011;49073;42.352;23.808;2022-08-03T08:16:49;5.60;;;2.15;;
62977;SDS011;49073;42.352;23.808;2022-08-03T08:19:50;3.17;;;2.00;;
62977;SDS011;49073;42.352;23.808;2022-08-03T08:22:51;2.70;;;2.00;;
62977;SDS011;49073;42.352;23.808;2022-08-03T08:25:51;3.70;;;2.38;;
62977;SDS011;49073;42.352;23.808;2022-08-03T08:28:52;4.10;;;2.10;;
62977;SDS011;49073;42.352;23.808;2022-08-03T08:31:53;3.22;;;2.28;;
62977;SDS011;49073;42.352;23.808;2022-08-03T08:34:53;3.65;;;2.30;;
62977;SDS011;49073;42.352;23.808;2022-08-03T08:37:54;3.03;;;2.15;;
62977;SDS011;49073;42.352;23.808;2022-08-03T08:40:55;3.80;;;1.90;;
62977;SDS011;49073;42.352;23.808;2022-08-03T08:43:56;3.50;;;2.10;;
62977;SDS011;49073;42.352;23.808;2022-08-03T08:46:57;3.00;;;2.60;;
62977;SDS011;49073;42.352;23.808;2022-08-03T08:50:02;2.20;;;1.98;;
62977;SDS011;49073;42.352;23.808;2022-08-03T08:53:03;1.98;;;1.77;;
62977;SDS011;49073;42.352;23.808;2022-08-03T08:56:06;2.80;;;1.83;;
62977;SDS011;49073;42.352;23.808;2022-08-03T08:59:11;3.10;;;2.30;;
62977;SDS011;49073;42.352;23.808;2022-08-03T09:02:13;2.50;;;2.13;;
62977;SDS011;49073;42.352;23.808;2022-08-03T09:05:14;5.10;;;2.40;;
62977;SDS011;49073;42.352;23.808;2022-08-03T09:08:16;2.85;;;2.10;;
62977;SDS011;49073;42.352;23.808;2022-08-03T09:11:21;3.10;;;2.30;;
62977;SDS011;49073;42.352;23.808;2022-08-03T09:14:22;2.50;;;2.25;;
62977;SDS011;49073;42.352;23.808;2022-08-03T09:17:23;2.60;;;2.17;;
62977;SDS011;49073;42.352;23.808;2022-08-03T09:20:24;2.92;;;2.22;;
62977;SDS011;49073;42.352;23.808;2022-08-03T09:23:30;2.50;;;2.30;;
62977;SDS011;49073;42.352;23.808;2022-08-03T09:26:48;6.68;;;2.13;;
62977;SDS011;49073;42.352;23.808;2022-08-03T09:29:50;2.42;;;1.85;;
62977;SDS011;49073;42.352;23.808;2022-08-03T09:32:52;2.30;;;1.88;;
62977;SDS011;49073;42.352;23.808;2022-08-03T09:36:00;2.53;;;2.08;;
62977;SDS011;49073;42.352;23.808;2022-08-03T09:39:02;2.53;;;1.88;;
62977;SDS011;49073;42.352;23.808;2022-08-03T09:48:28;2.20;;;2.00;;
62977;SDS011;49073;42.352;23.808;2022-08-03T09:51:30;3.00;;;2.38;;
62977;SDS011;49073;42.352;23.808;2022-08-03T09:54:31;2.58;;;2.20;;
62977;SDS011;49073;42.352;23.808;2022-08-03T09:57:31;2.42;;;2.08;;
62977;SDS011;49073;42.352;23.808;2022-08-03T10:00:32;5.10;;;2.83;;
62977;SDS011;49073;42.352;23.808;2022-08-03T10:03:56;2.42;;;2.13;;
62977;SDS011;49073;42.352;23.808;2022-08-03T10:07:02;2.95;;;2.05;;
62977;SDS011;49073;42.352;23.808;2022-08-03T10:10:08;4.55;;;2.28;;
62977;SDS011;49073;42.352;23.808;2022-08-03T10:13:10;3.80;;;2.20;;
62977;SDS011;49073;42.352;23.808;2022-08-03T10:16:13;5.78;;;2.25;;
62977;SDS011;49073;42.352;23.808;2022-08-03T10:19:14;2.60;;;2.15;;
62977;SDS011;49073;42.352;23.808;2022-08-03T10:22:17;6.03;;;2.20;;
62977;SDS011;49073;42.352;23.808;2022-08-03T10:25:20;2.78;;;2.55;;
62977;SDS011;49073;42.352;23.808;2022-08-03T10:28:21;3.72;;;2.10;;
62977;SDS011;49073;42.352;23.808;2022-08-03T10:31:22;2.58;;;2.25;;
62977;SDS011;49073;42.352;23.808;2022-08-03T10:34:28;3.22;;;2.20;;
62977;SDS011;49073;42.352;23.808;2022-08-03T10:37:36;2.85;;;2.25;;
62977;SDS011;49073;42.352;23.808;2022-08-03T10:40:48;3.00;;;2.20;;
62977;SDS011;49073;42.352;23.808;2022-08-03T10:43:57;3.25;;;2.15;;
62977;SDS011;49073;42.352;23.808;2022-08-03T10:47:03;3.15;;;2.00;;
62977;SDS011;49073;42.352;23.808;2022-08-03T10:50:04;6.60;;;2.40;;
62977;SDS011;49073;42.352;23.808;2022-08-03T10:53:06;8.15;;;2.78;;
62977;SDS011;49073;42.352;23.808;2022-08-03T10:56:36;3.95;;;2.67;;
62977;SDS011;49073;42.352;23.808;2022-08-03T10:59:58;5.28;;;3.05;;
62977;SDS011;49073;42.352;23.808;2022-08-03T11:03:00;2.90;;;2.60;;
62977;SDS011;49073;42.352;23.808;2022-08-03T11:06:17;4.85;;;3.00;;
62977;SDS011;49073;42.352;23.808;2022-08-03T11:09:18;4.00;;;3.60;;
62977;SDS011;49073;42.352;23.808;2022-08-03T11:12:28;3.55;;;3.08;;
62977;SDS011;49073;42.352;23.808;2022-08-03T11:15:31;5.40;;;3.03;;
62977;SDS011;49073;42.352;23.808;2022-08-03T11:18:32;4.63;;;3.17;;
62977;SDS011;49073;42.352;23.808;2022-08-03T11:28:23;4.45;;;3.63;;
62977;SDS011;49073;42.352;23.808;2022-08-03T11:34:31;5.47;;;4.60;;
62977;SDS011;49073;42.352;23.808;2022-08-03T11:37:32;6.10;;;4.15;;
62977;SDS011;49073;42.352;23.808;2022-08-03T11:43:42;4.78;;;4.38;;
62977;SDS011;49073;42.352;23.808;2022-08-03T11:46:45;5.43;;;4.60;;
62977;SDS011;49073;42.352;23.808;2022-08-03T11:49:46;7.57;;;4.35;;
62977;SDS011;49073;42.352;23.808;2022-08-03T11:52:48;5.60;;;4.70;;
62977;SDS011;49073;42.352;23.808;2022-08-03T11:55:48;4.68;;;4.28;;
62977;SDS011;49073;42.352;23.808;2022-08-03T11:58:50;6.10;;;4.78;;
62977;SDS011;49073;42.352;23.808;2022-08-03T12:02:04;4.82;;;4.32;;
62977;SDS011;49073;42.352;23.808;2022-08-03T12:05:07;5.32;;;4.82;;
62977;SDS011;49073;42.352;23.808;2022-08-03T12:08:08;5.88;;;5.28;;
62977;SDS011;49073;42.352;23.808;2022-08-03T12:11:12;5.55;;;5.03;;
62977;SDS011;49073;42.352;23.808;2022-08-03T12:14:16;6.10;;;4.90;;
62977;SDS011;49073;42.352;23.808;2022-08-03T12:17:18;5.93;;;4.75;;
62977;SDS011;49073;42.352;23.808;2022-08-03T12:20:22;6.63;;;4.80;;
62977;SDS011;49073;42.352;23.808;2022-08-03T12:23:25;6.47;;;4.93;;
62977;SDS011;49073;42.352;23.808;2022-08-03T12:26:26;5.50;;;5.00;;
62977;SDS011;49073;42.352;23.808;2022-08-03T12:29:28;6.18;;;4.90;;
62977;SDS011;49073;42.352;23.808;2022-08-03T12:32:29;5.80;;;5.15;;
62977;SDS011;49073;42.352;23.808;2022-08-03T12:35:30;6.20;;;4.75;;
62977;SDS011;49073;42.352;23.808;2022-08-03T12:38:31;11.52;;;8.43;;
62977;SDS011;49073;42.352;23.808;2022-08-03T12:44:35;10.40;;;7.40;;
62977;SDS011;49073;42.352;23.808;2022-08-03T12:47:58;6.57;;;5.32;;
62977;SDS011;49073;42.352;23.808;2022-08-03T12:51:09;5.35;;;4.75;;
62977;SDS011;49073;42.352;23.808;2022-08-03T12:54:17;4.80;;;4.35;;
62977;SDS011;49073;42.352;23.808;2022-08-03T12:57:19;5.43;;;4.30;;
62977;SDS011;49073;42.352;23.808;2022-08-03T13:00:20;5.70;;;4.72;;
62977;SDS011;49073;42.352;23.808;2022-08-03T13:03:21;6.88;;;5.25;;
62977;SDS011;49073;42.352;23.808;2022-08-03T13:06:23;4.80;;;4.20;;
62977;SDS011;49073;42.352;23.808;2022-08-03T13:09:24;5.13;;;4.63;;
62977;SDS011;49073;42.352;23.808;2022-08-03T13:12:28;7.25;;;5.07;;
62977;SDS011;49073;42.352;23.808;2022-08-03T13:15:29;6.45;;;4.70;;
62977;SDS011;49073;42.352;23.808;2022-08-03T13:18:30;5.15;;;4.45;;
62977;SDS011;49073;42.352;23.808;2022-08-03T13:21:30;5.65;;;4.88;;
62977;SDS011;49073;42.352;23.808;2022-08-03T13:24:32;5.45;;;4.75;;
62977;SDS011;49073;42.352;23.808;2022-08-03T13:27:32;5.00;;;4.38;;
62977;SDS011;49073;42.352;23.808;2022-08-03T13:30:33;4.70;;;4.15;;
62977;SDS011;49073;42.352;23.808;2022-08-03T13:33:33;5.07;;;4.18;;
62977;SDS011;49073;42.352;23.808;2022-08-03T13:36:34;5.05;;;4.55;;
62977;SDS011;49073;42.352;23.808;2022-08-03T13:39:34;4.72;;;4.10;;
62977;SDS011;49073;42.352;23.808;2022-08-03T13:42:35;5.03;;;4.32;;
62977;SDS011;49073;42.352;23.808;2022-08-03T13:45:36;7.15;;;4.25;;
62977;SDS011;49073;42.352;23.808;2022-08-03T13:48:36;4.45;;;4.05;;
62977;SDS011;49073;42.352;23.808;2022-08-03T13:51:36;4.63;;;4.22;;
62977;SDS011;49073;42.352;23.808;2022-08-03T13:54:37;4.38;;;3.90;;
62977;SDS011;49073;42.352;23.808;2022-08-03T13:57:38;4.90;;;4.40;;
62977;SDS011;49073;42.352;23.808;2022-08-03T14:00:39;4.40;;;4.00;;
62977;SDS011;49073;42.352;23.808;2022-08-03T14:03:39;4.82;;;4.32;;
62977;SDS011;49073;42.352;23.808;2022-08-03T14:06:40;18.77;;;4.82;;
62977;SDS011;49073;42.352;23.808;2022-08-03T14:09:40;4.68;;;3.70;;
62977;SDS011;49073;42.352;23.808;2022-08-03T14:12:41;4.53;;;4.03;;
62977;SDS011;49073;42.352;23.808;2022-08-03T14:15:41;4.32;;;3.40;;
62977;SDS011;49073;42.352;23.808;2022-08-03T14:18:42;4.03;;;3.63;;
62977;SDS011;49073;42.352;23.808;2022-08-03T14:21:42;4.50;;;4.10;;
62977;SDS011;49073;42.352;23.808;2022-08-03T14:24:43;4.25;;;3.85;;
62977;SDS011;49073;42.352;23.808;2022-08-03T14:27:43;3.92;;;3.58;;
62977;SDS011;49073;42.352;23.808;2022-08-03T14:30:44;3.53;;;3.20;;
62977;SDS011;49073;42.352;23.808;2022-08-03T14:33:45;4.30;;;3.90;;
62977;SDS011;49073;42.352;23.808;2022-08-03T14:36:46;9.70;;;3.75;;
62977;SDS011;49073;42.352;23.808;2022-08-03T14:39:47;4.80;;;4.40;;
62977;SDS011;49073;42.352;23.808;2022-08-03T14:42:48;5.75;;;3.85;;
62977;SDS011;49073;42.352;23.808;2022-08-03T14:45:49;4.47;;;4.05;;
62977;SDS011;49073;42.352;23.808;2022-08-03T14:48:51;4.88;;;4.38;;
62977;SDS011;49073;42.352;23.808;2022-08-03T14:51:52;4.20;;;3.80;;
62977;SDS011;49073;42.352;23.808;2022-08-03T14:54:53;4.35;;;3.95;;
62977;SDS011;49073;42.352;23.808;2022-08-03T14:57:53;4.45;;;4.05;;
62977;SDS011;49073;42.352;23.808;2022-08-03T15:00:54;5.32;;;4.55;;
62977;SDS011;49073;42.352;23.808;2022-08-03T15:03:55;7.75;;;4.65;;
62977;SDS011;49073;42.352;23.808;2022-08-03T15:06:55;4.10;;;3.72;;
62977;SDS011;49073;42.352;23.808;2022-08-03T15:09:56;4.43;;;4.03;;
62977;SDS011;49073;42.352;23.808;2022-08-03T15:12:57;4.68;;;4.28;;
62977;SDS011;49073;42.352;23.808;2022-08-03T15:15:57;5.18;;;4.40;;
62977;SDS011;49073;42.352;23.808;2022-08-03T15:18:58;4.90;;;4.35;;
62977;SDS011;49073;42.352;23.808;2022-08-03T15:21:59;4.70;;;4.30;;
62977;SDS011;49073;42.352;23.808;2022-08-03T15:25:03;4.63;;;4.20;;
62977;SDS011;49073;42.352;23.808;2022-08-03T15:28:04;6.13;;;4.70;;
62977;SDS011;49073;42.352;23.808;2022-08-03T15:31:04;5.07;;;4.47;;
62977;SDS011;49073;42.352;23.808;2022-08-03T15:34:05;4.72;;;4.07;;
62977;SDS011;49073;42.352;23.808;2022-08-03T15:37:06;4.70;;;4.30;;
62977;SDS011;49073;42.352;23.808;2022-08-03T15:40:06;5.53;;;4.10;;
62977;SDS011;49073;42.352;23.808;2022-08-03T15:43:07;4.68;;;4.28;;
62977;SDS011;49073;42.352;23.808;2022-08-03T15:46:08;5.13;;;4.60;;
62977;SDS011;49073;42.352;23.808;2022-08-03T15:49:08;4.70;;;4.30;;
62977;SDS011;49073;42.352;23.808;2022-08-03T15:52:10;5.47;;;4.97;;
62977;SDS011;49073;42.352;23.808;2022-08-03T15:55:10;5.35;;;4.85;;
62977;SDS011;49073;42.352;23.808;2022-08-03T15:58:11;6.38;;;5.20;;
62977;SDS011;49073;42.352;23.808;2022-08-03T16:01:12;5.53;;;5.03;;
62977;SDS011;49073;42.352;23.808;2022-08-03T16:04:13;5.30;;;4.80;;
62977;SDS011;49073;42.352;23.808;2022-08-03T16:07:13;8.38;;;4.72;;
62977;SDS011;49073;42.352;23.808;2022-08-03T16:10:15;5.00;;;4.60;;
62977;SDS011;49073;42.352;23.808;2022-08-03T16:13:17;5.45;;;4.93;;
62977;SDS011;49073;42.352;23.808;2022-08-03T16:16:17;4.80;;;4.30;;
62977;SDS011;49073;42.352;23.808;2022-08-03T16:19:17;5.53;;;4.95;;
62977;SDS011;49073;42.352;23.808;2022-08-03T16:22:18;5.95;;;5.32;;
62977;SDS011;49073;42.352;23.808;2022-08-03T16:25:19;5.10;;;4.70;;
62977;SDS011;49073;42.352;23.808;2022-08-03T16:28:19;6.13;;;5.53;;
62977;SDS011;49073;42.352;23.808;2022-08-03T16:31:21;5.40;;;4.90;;
62977;SDS011;49073;42.352;23.808;2022-08-03T16:34:26;6.40;;;5.80;;
62977;SDS011;49073;42.352;23.808;2022-08-03T16:37:26;5.82;;;5.22;;
62977;SDS011;49073;42.352;23.808;2022-08-03T16:40:27;6.07;;;5.47;;
62977;SDS011;49073;42.352;23.808;2022-08-03T16:43:27;5.82;;;5.28;;
62977;SDS011;49073;42.352;23.808;2022-08-03T16:46:28;5.63;;;5.00;;
62977;SDS011;49073;42.352;23.808;2022-08-03T16:49:28;6.47;;;5.32;;
62977;SDS011;49073;42.352;23.808;2022-08-03T16:52:29;8.23;;;5.53;;
62977;SDS011;49073;42.352;23.808;2022-08-03T16:55:29;5.38;;;4.88;;
62977;SDS011;49073;42.352;23.808;2022-08-03T16:58:30;5.50;;;5.00;;
62977;SDS011;49073;42.352;23.808;2022-08-03T17:01:32;5.88;;;5.28;;
62977;SDS011;49073;42.352;23.808;2022-08-03T17:04:32;5.65;;;5.05;;
62977;SDS011;49073;42.352;23.808;2022-08-03T17:07:33;48.25;;;6.75;;
62977;SDS011;49073;42.352;23.808;2022-08-03T17:10:33;11.98;;;5.75;;
62977;SDS011;49073;42.352;23.808;2022-08-03T17:13:34;5.97;;;5.43;;
62977;SDS011;49073;42.352;23.808;2022-08-03T17:16:34;6.32;;;5.60;;
62977;SDS011;49073;42.352;23.808;2022-08-03T17:19:39;5.90;;;5.30;;
62977;SDS011;49073;42.352;23.808;2022-08-03T17:22:44;7.32;;;5.07;;
62977;SDS011;49073;42.352;23.808;2022-08-03T17:25:53;5.95;;;5.35;;
62977;SDS011;49073;42.352;23.808;2022-08-03T17:28:53;5.75;;;5.25;;
62977;SDS011;49073;42.352;23.808;2022-08-03T17:31:56;6.15;;;5.55;;
62977;SDS011;49073;42.352;23.808;2022-08-03T17:34:57;5.35;;;4.85;;
62977;SDS011;49073;42.352;23.808;2022-08-03T17:37:58;6.93;;;5.43;;
62977;SDS011;49073;42.352;23.808;2022-08-03T17:41:03;6.07;;;4.90;;
62977;SDS011;49073;42.352;23.808;2022-08-03T17:44:04;5.70;;;5.20;;
62977;SDS011;49073;42.352;23.808;2022-08-03T17:47:05;14.98;;;5.72;;
62977;SDS011;49073;42.352;23.808;2022-08-03T17:50:06;5.88;;;5.38;;
62977;SDS011;49073;42.352;23.808;2022-08-03T17:53:08;6.47;;;5.60;;
62977;SDS011;49073;42.352;23.808;2022-08-03T18:06:19;7.72;;;5.95;;
62977;SDS011;49073;42.352;23.808;2022-08-03T18:09:25;6.07;;;5.47;;
62977;SDS011;49073;42.352;23.808;2022-08-03T18:12:27;5.75;;;5.25;;
62977;SDS011;49073;42.352;23.808;2022-08-03T18:15:33;6.43;;;5.82;;
62977;SDS011;49073;42.352;23.808;2022-08-03T18:18:39;5.82;;;5.32;;
62977;SDS011;49073;42.352;23.808;2022-08-03T18:21:41;6.15;;;5.55;;
62977;SDS011;49073;42.352;23.808;2022-08-03T18:24:43;6.20;;;5.60;;
62977;SDS011;49073;42.352;23.808;2022-08-03T18:27:44;6.32;;;5.68;;
62977;SDS011;49073;42.352;23.808;2022-08-03T18:30:45;6.45;;;5.85;;
62977;SDS011;49073;42.352;23.808;2022-08-03T18:33:47;6.05;;;5.50;;
62977;SDS011;49073;42.352;23.808;2022-08-03T18:36:48;6.97;;;5.97;;
62977;SDS011;49073;42.352;23.808;2022-08-03T18:39:49;6.53;;;5.90;;